sensor_id;sensor_type;location;lat;lon;timestamp;pressure;altitude;pressure_sealevel;temperature;humidity
70488;BME280;57976;48.174;16.370;2022-12-20T00:01:47;100645.60;;;-0.05;93.56
70488;BME280;57976;48.174;16.370;2022-12-20T00:03:51;100644.46;;;-0.06;93.62
70488;BME280;57976;48.174;16.370;2022-12-20T00:05:54;100641.29;;;-0.06;93.55
70488;BME280;57976;48.174;16.370;2022-12-20T00:07:57;100637.92;;;-0.08;93.81
70488;BME280;57976;48.174;16.370;2022-12-20T00:10:00;100636.59;;;-0.09;93.75
70488;BME280;57976;48.174;16.370;2022-12-20T00:12:03;100634.98;;;-0.08;93.68
70488;BME280;57976;48.174;16.370;2022-12-20T00:14:06;100637.14;;;-0.06;93.58
70488;BME280;57976;48.174;16.370;2022-12-20T00:16:10;100636.68;;;-0.07;93.69
70488;BME280;57976;48.174;16.370;2022-12-20T00:18:14;100635.48;;;-0.08;93.67
70488;BME280;57976;48.174;16.370;2022-12-20T00:20:17;100623.54;;;-0.09;93.81
70488;BME280;57976;48.174;16.370;2022-12-20T00:22:19;100625.14;;;-0.10;93.79
70488;BME280;57976;48.174;16.370;2022-12-20T00:24:22;100620.86;;;-0.08;94.12
70488;BME280;57976;48.174;16.370;2022-12-20T00:26:30;100609.58;;;-0.07;94.14
70488;BME280;57976;48.174;16.370;2022-12-20T00:28:33;100618.59;;;-0.08;94.05
70488;BME280;57976;48.174;16.370;2022-12-20T00:30:36;100626.20;;;-0.10;94.18
70488;BME280;57976;48.174;16.370;2022-12-20T00:32:40;100623.59;;;-0.10;94.23
70488;BME280;57976;48.174;16.370;2022-12-20T00:34:43;100621.65;;;-0.12;94.30
70488;BME280;57976;48.174;16.370;2022-12-20T00:36:46;100620.20;;;-0.14;94.45
70488;BME280;57976;48.174;16.370;2022-12-20T00:38:50;100625.47;;;-0.14;94.40
70488;BME280;57976;48.174;16.370;2022-12-20T00:41:00;100621.93;;;-0.14;94.46
70488;BME280;57976;48.174;16.370;2022-12-20T00:43:03;100623.41;;;-0.15;94.53
70488;BME280;57976;48.174;16.370;2022-12-20T00:45:08;100626.67;;;-0.14;94.67
70488;BME280;57976;48.174;16.370;2022-12-20T00:47:10;100627.63;;;-0.13;94.69
70488;BME280;57976;48.174;16.370;2022-12-20T00:49:13;100628.05;;;-0.14;94.66
70488;BME280;57976;48.174;16.370;2022-12-20T00:51:18;100628.70;;;-0.13;94.63
70488;BME280;57976;48.174;16.370;2022-12-20T00:53:20;100625.50;;;-0.12;94.58
70488;BME280;57976;48.174;16.370;2022-12-20T00:55:28;100627.06;;;-0.12;94.59
70488;BME280;57976;48.174;16.370;2022-12-20T00:57:31;100627.77;;;-0.12;94.65
70488;BME280;57976;48.174;16.370;2022-12-20T00:59:34;100636.20;;;-0.11;94.53
70488;BME280;57976;48.174;16.370;2022-12-20T01:01:37;100637.52;;;-0.09;94.69
70488;BME280;57976;48.174;16.370;2022-12-20T01:03:40;100642.94;;;-0.07;94.62
70488;BME280;57976;48.174;16.370;2022-12-20T01:05:50;100649.12;;;-0.08;94.34
70488;BME280;57976;48.174;16.370;2022-12-20T01:07:53;100648.60;;;-0.05;94.97
70488;BME280;57976;48.174;16.370;2022-12-20T01:09:56;100648.84;;;-0.04;94.94
70488;BME280;57976;48.174;16.370;2022-12-20T01:11:58;100643.45;;;-0.02;94.88
70488;BME280;57976;48.174;16.370;2022-12-20T01:14:03;100644.83;;;-0.01;94.79
70488;BME280;57976;48.174;16.370;2022-12-20T01:16:10;100641.55;;;-0.02;94.66
70488;BME280;57976;48.174;16.370;2022-12-20T01:18:13;100645.95;;;-0.02;94.77
70488;BME280;57976;48.174;16.370;2022-12-20T01:20:17;100647.23;;;-0.01;94.94
70488;BME280;57976;48.174;16.370;2022-12-20T01:22:19;100642.89;;;-0.01;94.82
70488;BME280;57976;48.174;16.370;2022-12-20T01:24:22;100632.35;;;-0.03;94.86
70488;BME280;57976;48.174;16.370;2022-12-20T01:26:27;100626.95;;;-0.03;94.79
70488;BME280;57976;48.174;16.370;2022-12-20T01:28:31;100615.92;;;-0.02;94.87
70488;BME280;57976;48.174;16.370;2022-12-20T01:30:34;100611.30;;;-0.01;94.97
70488;BME280;57976;48.174;16.370;2022-12-20T01:32:37;100604.26;;;-0.03;94.92
70488;BME280;57976;48.174;16.370;2022-12-20T01:34:40;100604.97;;;-0.03;94.89
70488;BME280;57976;48.174;16.370;2022-12-20T01:36:43;100611.25;;;-0.03;95.07
70488;BME280;57976;48.174;16.370;2022-12-20T01:38:46;100603.50;;;-0.04;94.97
70488;BME280;57976;48.174;16.370;2022-12-20T01:40:48;100607.88;;;-0.05;95.07
70488;BME280;57976;48.174;16.370;2022-12-20T01:42:51;100606.48;;;-0.02;95.17
70488;BME280;57976;48.174;16.370;2022-12-20T01:45:12;100602.77;;;-0.02;95.00
70488;BME280;57976;48.174;16.370;2022-12-20T01:47:16;100596.61;;;-0.01;94.92
70488;BME280;57976;48.174;16.370;2022-12-20T01:49:21;100591.48;;;-0.03;94.89
70488;BME280;57976;48.174;16.370;2022-12-20T01:51:26;100585.18;;;-0.05;94.47
70488;BME280;57976;48.174;16.370;2022-12-20T01:53:31;100585.30;;;-0.07;94.75
70488;BME280;57976;48.174;16.370;2022-12-20T01:55:34;100587.33;;;-0.08;94.53
70488;BME280;57976;48.174;16.370;2022-12-20T01:57:43;100598.29;;;-0.05;94.93
70488;BME280;57976;48.174;16.370;2022-12-20T01:59:49;100611.38;;;-0.05;94.78
70488;BME280;57976;48.174;16.370;2022-12-20T02:01:52;100606.16;;;-0.03;94.94
70488;BME280;57976;48.174;16.370;2022-12-20T02:03:57;100596.38;;;-0.03;94.71
70488;BME280;57976;48.174;16.370;2022-12-20T02:06:14;100592.00;;;-0.05;94.46
70488;BME280;57976;48.174;16.370;2022-12-20T02:08:19;100600.02;;;-0.04;94.75
70488;BME280;57976;48.174;16.370;2022-12-20T02:10:26;100609.20;;;-0.04;94.56
70488;BME280;57976;48.174;16.370;2022-12-20T02:12:38;100609.35;;;-0.01;94.47
70488;BME280;57976;48.174;16.370;2022-12-20T02:14:58;100608.77;;;0.03;94.37
70488;BME280;57976;48.174;16.370;2022-12-20T02:17:09;100605.25;;;0.06;94.30
70488;BME280;57976;48.174;16.370;2022-12-20T02:19:24;100599.61;;;0.07;94.07
70488;BME280;57976;48.174;16.370;2022-12-20T02:21:37;100591.88;;;0.08;94.11
70488;BME280;57976;48.174;16.370;2022-12-20T02:26:41;100583.15;;;0.07;93.65
70488;BME280;57976;48.174;16.370;2022-12-20T02:29:05;100582.59;;;0.05;93.58
70488;BME280;57976;48.174;16.370;2022-12-20T02:31:13;100581.77;;;0.04;93.71
70488;BME280;57976;48.174;16.370;2022-12-20T02:33:18;100575.94;;;0.03;93.63
70488;BME280;57976;48.174;16.370;2022-12-20T02:35:25;100573.19;;;0.08;93.73
70488;BME280;57976;48.174;16.370;2022-12-20T02:37:28;100572.98;;;0.08;93.49
70488;BME280;57976;48.174;16.370;2022-12-20T02:39:35;100570.52;;;0.08;93.43
70488;BME280;57976;48.174;16.370;2022-12-20T02:41:41;100567.73;;;0.08;93.35
70488;BME280;57976;48.174;16.370;2022-12-20T02:43:49;100566.08;;;0.09;93.30
70488;BME280;57976;48.174;16.370;2022-12-20T02:45:56;100571.25;;;0.13;93.29
70488;BME280;57976;48.174;16.370;2022-12-20T02:48:04;100566.77;;;0.12;93.03
70488;BME280;57976;48.174;16.370;2022-12-20T02:50:10;100569.98;;;0.11;92.83
70488;BME280;57976;48.174;16.370;2022-12-20T02:52:14;100568.22;;;0.11;92.86
70488;BME280;57976;48.174;16.370;2022-12-20T02:54:17;100563.03;;;0.10;92.76
70488;BME280;57976;48.174;16.370;2022-12-20T02:56:26;100558.08;;;0.11;93.02
70488;BME280;57976;48.174;16.370;2022-12-20T02:58:32;100563.64;;;0.09;92.80
70488;BME280;57976;48.174;16.370;2022-12-20T03:00:39;100563.89;;;0.08;93.16
70488;BME280;57976;48.174;16.370;2022-12-20T03:02:44;100564.02;;;0.06;93.08
70488;BME280;57976;48.174;16.370;2022-12-20T03:04:49;100564.19;;;0.06;93.15
70488;BME280;57976;48.174;16.370;2022-12-20T03:07:04;100568.19;;;0.07;93.21
70488;BME280;57976;48.174;16.370;2022-12-20T03:09:07;100576.31;;;0.08;93.28
70488;BME280;57976;48.174;16.370;2022-12-20T03:11:10;100567.67;;;0.09;93.45
70488;BME280;57976;48.174;16.370;2022-12-20T03:13:13;100572.13;;;0.10;93.54
70488;BME280;57976;48.174;16.370;2022-12-20T03:15:22;100570.58;;;0.15;93.63
70488;BME280;57976;48.174;16.370;2022-12-20T03:17:26;100572.27;;;0.16;93.28
70488;BME280;57976;48.174;16.370;2022-12-20T03:19:30;100572.20;;;0.14;93.33
70488;BME280;57976;48.174;16.370;2022-12-20T03:21:32;100568.90;;;0.14;93.32
70488;BME280;57976;48.174;16.370;2022-12-20T03:23:36;100564.62;;;0.13;93.39
70488;BME280;57976;48.174;16.370;2022-12-20T03:25:39;100563.97;;;0.12;93.65
70488;BME280;57976;48.174;16.370;2022-12-20T03:27:43;100559.98;;;0.11;93.55
70488;BME280;57976;48.174;16.370;2022-12-20T03:29:45;100549.33;;;0.12;93.66
70488;BME280;57976;48.174;16.370;2022-12-20T03:31:48;100554.92;;;0.12;93.55
70488;BME280;57976;48.174;16.370;2022-12-20T03:33:51;100552.00;;;0.13;93.65
70488;BME280;57976;48.174;16.370;2022-12-20T03:35:54;100551.17;;;0.13;93.46
70488;BME280;57976;48.174;16.370;2022-12-20T03:37:57;100549.80;;;0.12;93.79
70488;BME280;57976;48.174;16.370;2022-12-20T03:40:00;100541.91;;;0.13;93.77
70488;BME280;57976;48.174;16.370;2022-12-20T03:42:03;100539.35;;;0.17;94.06
70488;BME280;57976;48.174;16.370;2022-12-20T03:44:05;100534.80;;;0.17;93.77
70488;BME280;57976;48.174;16.370;2022-12-20T03:46:08;100544.67;;;0.23;93.81
70488;BME280;57976;48.174;16.370;2022-12-20T03:48:13;100547.03;;;0.27;93.62
70488;BME280;57976;48.174;16.370;2022-12-20T03:50:16;100548.46;;;0.26;93.42
70488;BME280;57976;48.174;16.370;2022-12-20T03:52:19;100547.72;;;0.27;93.39
70488;BME280;57976;48.174;16.370;2022-12-20T03:54:22;100545.21;;;0.23;93.04
70488;BME280;57976;48.174;16.370;2022-12-20T03:56:36;100541.25;;;0.22;93.39
70488;BME280;57976;48.174;16.370;2022-12-20T03:58:39;100548.33;;;0.23;93.45
70488;BME280;57976;48.174;16.370;2022-12-20T04:00:43;100546.86;;;0.22;93.34
70488;BME280;57976;48.174;16.370;2022-12-20T04:03:03;100555.67;;;0.21;93.22
70488;BME280;57976;48.174;16.370;2022-12-20T04:05:07;100552.90;;;0.23;93.62
70488;BME280;57976;48.174;16.370;2022-12-20T04:07:10;100553.14;;;0.27;93.74
70488;BME280;57976;48.174;16.370;2022-12-20T04:09:14;100547.66;;;0.30;93.45
70488;BME280;57976;48.174;16.370;2022-12-20T04:11:22;100549.27;;;0.32;93.32
70488;BME280;57976;48.174;16.370;2022-12-20T04:13:30;100553.89;;;0.36;93.25
70488;BME280;57976;48.174;16.370;2022-12-20T04:15:32;100555.80;;;0.37;93.21
70488;BME280;57976;48.174;16.370;2022-12-20T04:17:35;100563.85;;;0.41;93.69
70488;BME280;57976;48.174;16.370;2022-12-20T04:19:38;100569.04;;;0.42;92.93
70488;BME280;57976;48.174;16.370;2022-12-20T04:21:41;100573.00;;;0.42;93.14
70488;BME280;57976;48.174;16.370;2022-12-20T04:23:44;100567.72;;;0.43;92.93
70488;BME280;57976;48.174;16.370;2022-12-20T04:25:47;100563.42;;;0.42;92.65
70488;BME280;57976;48.174;16.370;2022-12-20T04:27:51;100560.90;;;0.41;92.70
70488;BME280;57976;48.174;16.370;2022-12-20T04:29:54;100552.70;;;0.41;93.03
70488;BME280;57976;48.174;16.370;2022-12-20T04:31:57;100559.60;;;0.42;92.76
70488;BME280;57976;48.174;16.370;2022-12-20T04:34:00;100564.04;;;0.43;93.07
70488;BME280;57976;48.174;16.370;2022-12-20T04:36:05;100568.54;;;0.47;93.08
70488;BME280;57976;48.174;16.370;2022-12-20T04:38:08;100563.83;;;0.49;92.96
70488;BME280;57976;48.174;16.370;2022-12-20T04:40:12;100561.75;;;0.51;92.85
70488;BME280;57976;48.174;16.370;2022-12-20T04:42:20;100563.23;;;0.55;92.84
70488;BME280;57976;48.174;16.370;2022-12-20T04:44:23;100561.13;;;0.57;92.50
70488;BME280;57976;48.174;16.370;2022-12-20T04:46:28;100557.52;;;0.56;92.15
70488;BME280;57976;48.174;16.370;2022-12-20T04:48:31;100546.20;;;0.54;92.26
70488;BME280;57976;48.174;16.370;2022-12-20T04:50:55;100540.84;;;0.52;92.32
70488;BME280;57976;48.174;16.370;2022-12-20T04:52:58;100538.59;;;0.55;92.76
70488;BME280;57976;48.174;16.370;2022-12-20T04:55:01;100541.51;;;0.56;92.44
70488;BME280;57976;48.174;16.370;2022-12-20T04:57:05;100545.89;;;0.58;92.51
70488;BME280;57976;48.174;16.370;2022-12-20T04:59:08;100542.10;;;0.57;92.26
70488;BME280;57976;48.174;16.370;2022-12-20T05:01:11;100546.48;;;0.57;92.25
70488;BME280;57976;48.174;16.370;2022-12-20T05:03:20;100550.89;;;0.56;92.46
70488;BME280;57976;48.174;16.370;2022-12-20T05:05:23;100553.42;;;0.58;92.32
70488;BME280;57976;48.174;16.370;2022-12-20T05:07:28;100553.28;;;0.57;92.27
70488;BME280;57976;48.174;16.370;2022-12-20T05:09:31;100543.27;;;0.58;92.28
70488;BME280;57976;48.174;16.370;2022-12-20T05:11:34;100540.52;;;0.59;92.45
70488;BME280;57976;48.174;16.370;2022-12-20T05:13:37;100533.48;;;0.60;92.44
70488;BME280;57976;48.174;16.370;2022-12-20T05:15:42;100527.23;;;0.57;92.16
70488;BME280;57976;48.174;16.370;2022-12-20T05:17:45;100532.52;;;0.57;92.40
70488;BME280;57976;48.174;16.370;2022-12-20T05:19:48;100539.23;;;0.55;92.27
70488;BME280;57976;48.174;16.370;2022-12-20T05:21:51;100531.80;;;0.54;92.41
70488;BME280;57976;48.174;16.370;2022-12-20T05:23:54;100525.93;;;0.53;92.34
70488;BME280;57976;48.174;16.370;2022-12-20T05:25:58;100520.61;;;0.54;92.75
70488;BME280;57976;48.174;16.370;2022-12-20T05:28:01;100525.20;;;0.56;92.50
70488;BME280;57976;48.174;16.370;2022-12-20T05:30:09;100535.27;;;0.57;92.59
70488;BME280;57976;48.174;16.370;2022-12-20T05:32:12;100535.27;;;0.57;92.57
70488;BME280;57976;48.174;16.370;2022-12-20T05:34:16;100531.25;;;0.57;92.34
70488;BME280;57976;48.174;16.370;2022-12-20T05:36:23;100527.61;;;0.57;92.55
70488;BME280;57976;48.174;16.370;2022-12-20T05:38:26;100531.98;;;0.57;92.58
70488;BME280;57976;48.174;16.370;2022-12-20T05:40:28;100527.21;;;0.57;92.58
70488;BME280;57976;48.174;16.370;2022-12-20T05:42:31;100521.14;;;0.59;92.76
70488;BME280;57976;48.174;16.370;2022-12-20T05:44:34;100522.37;;;0.64;93.00
70488;BME280;57976;48.174;16.370;2022-12-20T05:46:36;100523.61;;;0.66;92.52
70488;BME280;57976;48.174;16.370;2022-12-20T05:48:43;100521.67;;;0.64;92.19
70488;BME280;57976;48.174;16.370;2022-12-20T05:50:46;100519.33;;;0.65;92.26
70488;BME280;57976;48.174;16.370;2022-12-20T05:53:06;100516.06;;;0.69;92.67
70488;BME280;57976;48.174;16.370;2022-12-20T05:55:18;100515.45;;;0.68;92.95
70488;BME280;57976;48.174;16.370;2022-12-20T05:57:21;100520.19;;;0.72;96.48
70488;BME280;57976;48.174;16.370;2022-12-20T05:59:24;100525.09;;;0.77;96.72
70488;BME280;57976;48.174;16.370;2022-12-20T06:01:26;100529.72;;;0.76;94.87
70488;BME280;57976;48.174;16.370;2022-12-20T06:03:33;100538.30;;;0.76;93.94
70488;BME280;57976;48.174;16.370;2022-12-20T06:05:39;100540.92;;;0.73;93.48
70488;BME280;57976;48.174;16.370;2022-12-20T06:07:42;100536.52;;;0.71;93.33
70488;BME280;57976;48.174;16.370;2022-12-20T06:09:45;100526.48;;;0.70;93.18
70488;BME280;57976;48.174;16.370;2022-12-20T06:11:50;100516.57;;;0.69;93.08
70488;BME280;57976;48.174;16.370;2022-12-20T06:13:53;100512.58;;;0.69;93.03
70488;BME280;57976;48.174;16.370;2022-12-20T06:15:56;100509.22;;;0.69;92.90
70488;BME280;57976;48.174;16.370;2022-12-20T06:17:59;100515.55;;;0.69;92.71
70488;BME280;57976;48.174;16.370;2022-12-20T06:20:01;100519.11;;;0.66;92.86
70488;BME280;57976;48.174;16.370;2022-12-20T06:22:05;100519.38;;;0.67;92.83
70488;BME280;57976;48.174;16.370;2022-12-20T06:24:19;100517.40;;;0.67;93.10
70488;BME280;57976;48.174;16.370;2022-12-20T06:26:23;100518.00;;;0.69;93.02
70488;BME280;57976;48.174;16.370;2022-12-20T06:28:25;100519.23;;;0.69;92.77
70488;BME280;57976;48.174;16.370;2022-12-20T06:30:29;100519.91;;;0.66;92.65
70488;BME280;57976;48.174;16.370;2022-12-20T06:32:44;100518.52;;;0.69;93.02
70488;BME280;57976;48.174;16.370;2022-12-20T06:34:47;100518.18;;;0.69;92.77
70488;BME280;57976;48.174;16.370;2022-12-20T06:36:52;100513.33;;;0.70;92.89
70488;BME280;57976;48.174;16.370;2022-12-20T06:38:58;100517.75;;;0.70;92.54
70488;BME280;57976;48.174;16.370;2022-12-20T06:41:04;100525.06;;;0.68;92.82
70488;BME280;57976;48.174;16.370;2022-12-20T06:43:07;100525.29;;;0.69;92.81
70488;BME280;57976;48.174;16.370;2022-12-20T06:45:11;100519.59;;;0.71;92.89
70488;BME280;57976;48.174;16.370;2022-12-20T06:47:14;100518.23;;;0.70;92.79
70488;BME280;57976;48.174;16.370;2022-12-20T06:49:17;100512.08;;;0.68;92.75
70488;BME280;57976;48.174;16.370;2022-12-20T06:51:19;100507.67;;;0.69;92.97
70488;BME280;57976;48.174;16.370;2022-12-20T06:53:22;100503.11;;;0.70;92.90
70488;BME280;57976;48.174;16.370;2022-12-20T06:55:26;100503.94;;;0.70;92.89
70488;BME280;57976;48.174;16.370;2022-12-20T06:57:28;100508.17;;;0.72;92.87
70488;BME280;57976;48.174;16.370;2022-12-20T06:59:31;100507.31;;;0.69;92.67
70488;BME280;57976;48.174;16.370;2022-12-20T07:01:34;100512.47;;;0.70;92.88
70488;BME280;57976;48.174;16.370;2022-12-20T07:03:37;100510.33;;;0.71;92.88
70488;BME280;57976;48.174;16.370;2022-12-20T07:05:40;100511.34;;;0.66;92.60
70488;BME280;57976;48.174;16.370;2022-12-20T07:07:42;100512.11;;;0.63;93.16
70488;BME280;57976;48.174;16.370;2022-12-20T07:09:47;100512.41;;;0.59;93.09
70488;BME280;57976;48.174;16.370;2022-12-20T07:11:50;100504.92;;;0.56;93.19
70488;BME280;57976;48.174;16.370;2022-12-20T07:13:55;100510.56;;;0.53;93.30
70488;BME280;57976;48.174;16.370;2022-12-20T07:15:58;100509.27;;;0.52;93.48
70488;BME280;57976;48.174;16.370;2022-12-20T07:18:01;100509.89;;;0.50;93.57
70488;BME280;57976;48.174;16.370;2022-12-20T07:20:06;100514.44;;;0.50;93.81
70488;BME280;57976;48.174;16.370;2022-12-20T07:22:15;100521.50;;;0.49;93.80
70488;BME280;57976;48.174;16.370;2022-12-20T07:24:18;100530.18;;;0.48;94.13
70488;BME280;57976;48.174;16.370;2022-12-20T07:26:21;100539.46;;;0.50;94.14
70488;BME280;57976;48.174;16.370;2022-12-20T07:28:24;100544.13;;;0.51;94.02
70488;BME280;57976;48.174;16.370;2022-12-20T07:30:28;100545.77;;;0.52;94.27
70488;BME280;57976;48.174;16.370;2022-12-20T07:32:31;100539.40;;;0.53;94.02
70488;BME280;57976;48.174;16.370;2022-12-20T07:34:36;100528.06;;;0.51;94.09
70488;BME280;57976;48.174;16.370;2022-12-20T07:36:39;100529.80;;;0.51;94.14
70488;BME280;57976;48.174;16.370;2022-12-20T07:38:41;100522.95;;;0.49;94.01
70488;BME280;57976;48.174;16.370;2022-12-20T07:40:44;100510.98;;;0.47;94.19
70488;BME280;57976;48.174;16.370;2022-12-20T07:42:47;100491.61;;;0.49;94.57
70488;BME280;57976;48.174;16.370;2022-12-20T07:44:51;100487.95;;;0.51;94.51
70488;BME280;57976;48.174;16.370;2022-12-20T07:46:54;100479.35;;;0.50;94.47
70488;BME280;57976;48.174;16.370;2022-12-20T07:48:56;100484.98;;;0.49;94.50
70488;BME280;57976;48.174;16.370;2022-12-20T07:51:02;100492.48;;;0.50;94.45
70488;BME280;57976;48.174;16.370;2022-12-20T07:53:08;100496.24;;;0.51;94.58
70488;BME280;57976;48.174;16.370;2022-12-20T07:55:12;100501.37;;;0.50;94.50
70488;BME280;57976;48.174;16.370;2022-12-20T07:57:19;100494.48;;;0.51;94.68
70488;BME280;57976;48.174;16.370;2022-12-20T07:59:28;100493.19;;;0.52;94.61
70488;BME280;57976;48.174;16.370;2022-12-20T08:01:35;100497.65;;;0.53;94.61
70488;BME280;57976;48.174;16.370;2022-12-20T08:03:41;100498.81;;;0.54;94.70
70488;BME280;57976;48.174;16.370;2022-12-20T08:05:48;100513.39;;;0.55;94.66
70488;BME280;57976;48.174;16.370;2022-12-20T08:07:53;100519.11;;;0.56;94.73
70488;BME280;57976;48.174;16.370;2022-12-20T08:10:01;100520.71;;;0.55;94.46
70488;BME280;57976;48.174;16.370;2022-12-20T08:12:05;100518.17;;;0.54;94.51
70488;BME280;57976;48.174;16.370;2022-12-20T08:14:09;100514.87;;;0.57;94.71
70488;BME280;57976;48.174;16.370;2022-12-20T08:16:12;100514.59;;;0.53;94.53
70488;BME280;57976;48.174;16.370;2022-12-20T08:18:15;100516.94;;;0.52;94.73
70488;BME280;57976;48.174;16.370;2022-12-20T08:20:18;100521.77;;;0.50;94.69
70488;BME280;57976;48.174;16.370;2022-12-20T08:22:21;100520.36;;;0.51;94.79
70488;BME280;57976;48.174;16.370;2022-12-20T08:24:24;100520.60;;;0.54;95.21
70488;BME280;57976;48.174;16.370;2022-12-20T08:26:27;100514.69;;;0.57;94.81
70488;BME280;57976;48.174;16.370;2022-12-20T08:28:30;100506.05;;;0.60;94.77
70488;BME280;57976;48.174;16.370;2022-12-20T08:30:33;100497.67;;;0.62;94.53
70488;BME280;57976;48.174;16.370;2022-12-20T08:32:35;100497.00;;;0.64;94.66
70488;BME280;57976;48.174;16.370;2022-12-20T08:34:39;100492.71;;;0.68;94.71
70488;BME280;57976;48.174;16.370;2022-12-20T08:36:41;100490.09;;;0.70;94.55
70488;BME280;57976;48.174;16.370;2022-12-20T08:38:44;100491.23;;;0.71;93.98
70488;BME280;57976;48.174;16.370;2022-12-20T08:40:47;100491.44;;;0.71;94.13
70488;BME280;57976;48.174;16.370;2022-12-20T08:42:50;100491.01;;;0.72;94.14
70488;BME280;57976;48.174;16.370;2022-12-20T08:44:52;100487.41;;;0.69;93.77
70488;BME280;57976;48.174;16.370;2022-12-20T08:46:55;100477.67;;;0.68;94.09
70488;BME280;57976;48.174;16.370;2022-12-20T08:48:58;100484.22;;;0.69;94.18
70488;BME280;57976;48.174;16.370;2022-12-20T08:51:02;100499.11;;;0.66;93.96
70488;BME280;57976;48.174;16.370;2022-12-20T08:53:05;100502.83;;;0.64;94.15
70488;BME280;57976;48.174;16.370;2022-12-20T08:55:08;100493.41;;;0.66;94.52
70488;BME280;57976;48.174;16.370;2022-12-20T08:57:15;100480.47;;;0.68;94.37
70488;BME280;57976;48.174;16.370;2022-12-20T08:59:18;100473.71;;;0.67;94.25
70488;BME280;57976;48.174;16.370;2022-12-20T09:01:21;100482.54;;;0.68;94.29
70488;BME280;57976;48.174;16.370;2022-12-20T09:03:24;100482.30;;;0.72;94.74
70488;BME280;57976;48.174;16.370;2022-12-20T09:05:27;100478.09;;;0.77;94.30
70488;BME280;57976;48.174;16.370;2022-12-20T09:07:30;100478.94;;;0.80;94.30
70488;BME280;57976;48.174;16.370;2022-12-20T09:09:33;100477.88;;;0.82;94.00
70488;BME280;57976;48.174;16.370;2022-12-20T09:11:35;100472.80;;;0.85;93.90
70488;BME280;57976;48.174;16.370;2022-12-20T09:13:39;100472.52;;;0.89;94.06
70488;BME280;57976;48.174;16.370;2022-12-20T09:15:46;100478.06;;;0.92;93.71
70488;BME280;57976;48.174;16.370;2022-12-20T09:17:49;100486.15;;;0.91;93.20
70488;BME280;57976;48.174;16.370;2022-12-20T09:19:52;100486.17;;;0.86;92.92
70488;BME280;57976;48.174;16.370;2022-12-20T09:21:54;100496.46;;;0.84;93.21
70488;BME280;57976;48.174;16.370;2022-12-20T09:23:57;100487.70;;;0.85;93.28
70488;BME280;57976;48.174;16.370;2022-12-20T09:26:02;100477.54;;;0.90;93.78
70488;BME280;57976;48.174;16.370;2022-12-20T09:28:05;100471.27;;;0.91;93.40
70488;BME280;57976;48.174;16.370;2022-12-20T09:30:10;100469.92;;;0.96;93.36
70488;BME280;57976;48.174;16.370;2022-12-20T09:32:13;100460.57;;;0.97;93.01
70488;BME280;57976;48.174;16.370;2022-12-20T09:34:16;100459.67;;;0.99;92.75
70488;BME280;57976;48.174;16.370;2022-12-20T09:36:20;100452.16;;;0.99;92.60
70488;BME280;57976;48.174;16.370;2022-12-20T09:38:24;100455.19;;;1.01;92.74
70488;BME280;57976;48.174;16.370;2022-12-20T09:40:30;100450.33;;;0.98;92.20
70488;BME280;57976;48.174;16.370;2022-12-20T09:42:33;100438.34;;;0.97;92.50
70488;BME280;57976;48.174;16.370;2022-12-20T09:44:39;100436.36;;;0.98;92.44
70488;BME280;57976;48.174;16.370;2022-12-20T09:46:42;100451.54;;;0.98;92.48
70488;BME280;57976;48.174;16.370;2022-12-20T09:48:46;100455.08;;;1.00;92.54
70488;BME280;57976;48.174;16.370;2022-12-20T09:50:57;100445.95;;;1.03;92.33
70488;BME280;57976;48.174;16.370;2022-12-20T09:53:16;100440.73;;;1.07;91.98
70488;BME280;57976;48.174;16.370;2022-12-20T09:55:28;100446.53;;;1.09;91.83
70488;BME280;57976;48.174;16.370;2022-12-20T09:57:44;100443.59;;;1.13;91.51
70488;BME280;57976;48.174;16.370;2022-12-20T09:59:49;100445.98;;;1.11;91.04
70488;BME280;57976;48.174;16.370;2022-12-20T10:01:52;100439.67;;;1.12;91.36
70488;BME280;57976;48.174;16.370;2022-12-20T10:03:57;100435.76;;;1.10;91.24
70488;BME280;57976;48.174;16.370;2022-12-20T10:06:05;100435.33;;;1.11;91.14
70488;BME280;57976;48.174;16.370;2022-12-20T10:08:16;100436.39;;;1.09;90.95
70488;BME280;57976;48.174;16.370;2022-12-20T10:10:38;100434.21;;;1.05;90.76
70488;BME280;57976;48.174;16.370;2022-12-20T10:12:49;100427.95;;;1.02;90.94
70488;BME280;57976;48.174;16.370;2022-12-20T10:15:07;100431.79;;;1.00;90.82
70488;BME280;57976;48.174;16.370;2022-12-20T10:17:21;100434.58;;;0.98;90.92
70488;BME280;57976;48.174;16.370;2022-12-20T10:19:51;100433.19;;;0.98;91.03
70488;BME280;57976;48.174;16.370;2022-12-20T10:22:04;100433.96;;;0.97;90.57
70488;BME280;57976;48.174;16.370;2022-12-20T10:24:14;100429.36;;;0.98;90.82
70488;BME280;57976;48.174;16.370;2022-12-20T10:26:21;100426.41;;;1.00;90.70
70488;BME280;57976;48.174;16.370;2022-12-20T10:28:26;100422.04;;;1.00;90.77
70488;BME280;57976;48.174;16.370;2022-12-20T10:30:32;100420.01;;;1.01;91.00
70488;BME280;57976;48.174;16.370;2022-12-20T10:32:35;100417.84;;;1.04;90.72
70488;BME280;57976;48.174;16.370;2022-12-20T10:34:38;100416.09;;;1.07;90.48
70488;BME280;57976;48.174;16.370;2022-12-20T10:37:10;100406.67;;;1.07;90.59
70488;BME280;57976;48.174;16.370;2022-12-20T10:39:13;100397.54;;;1.09;90.46
70488;BME280;57976;48.174;16.370;2022-12-20T10:41:18;100391.79;;;1.11;90.38
70488;BME280;57976;48.174;16.370;2022-12-20T10:43:25;100383.84;;;1.12;90.31
70488;BME280;57976;48.174;16.370;2022-12-20T10:45:33;100380.00;;;1.12;90.28
70488;BME280;57976;48.174;16.370;2022-12-20T10:47:42;100377.64;;;1.13;90.39
70488;BME280;57976;48.174;16.370;2022-12-20T10:49:46;100375.02;;;1.13;89.99
70488;BME280;57976;48.174;16.370;2022-12-20T10:51:52;100372.67;;;1.12;89.86
70488;BME280;57976;48.174;16.370;2022-12-20T10:53:57;100379.65;;;1.08;89.86
70488;BME280;57976;48.174;16.370;2022-12-20T10:56:18;100379.31;;;1.07;90.16